createdAt,value
2017-04-20T00:00:20.643Z,82.30
2017-04-20T00:01:19.878Z,82.20
2017-04-20T00:02:19.043Z,82.10
2017-04-20T00:03:18.227Z,81.90
2017-04-20T00:04:17.446Z,82.20
2017-04-20T00:05:16.643Z,82.00
2017-04-20T00:06:15.806Z,82.00
2017-04-20T00:07:14.983Z,82.10
2017-04-20T00:08:14.125Z,82.50
2017-04-20T00:09:13.257Z,82.30
2017-04-20T00:10:12.417Z,82.10
2017-04-20T00:11:11.609Z,82.70
2017-04-20T00:12:10.785Z,82.40
2017-04-20T00:14:09.554Z,82.50
2017-04-20T00:15:08.804Z,81.80
2017-04-20T00:16:08.001Z,82.10
2017-04-20T00:17:07.164Z,82.30
2017-04-20T00:18:06.308Z,82.30
2017-04-20T00:19:05.476Z,82.50
2017-04-20T00:20:04.609Z,82.00
2017-04-20T00:21:03.845Z,81.60
2017-04-20T00:22:02.992Z,82.20
2017-04-20T00:23:02.161Z,82.20
2017-04-20T00:24:01.376Z,82.10
2017-04-20T00:25:00.587Z,82.70
2017-04-20T00:25:59.748Z,82.70
2017-04-20T00:26:58.910Z,82.30
2017-04-20T00:27:58.157Z,82.70
2017-04-20T00:28:57.279Z,82.90
2017-04-20T00:29:57.253Z,82.90
2017-04-20T00:30:56.484Z,82.80
2017-04-20T00:31:55.628Z,82.60
2017-04-20T00:32:54.767Z,83.00
2017-04-20T00:33:53.920Z,83.20
2017-04-20T00:34:53.069Z,82.80
2017-04-20T00:35:52.297Z,83.00
2017-04-20T00:36:51.453Z,83.30
2017-04-20T00:37:50.596Z,82.80
2017-04-20T00:38:49.722Z,83.40
2017-04-20T00:39:48.884Z,82.80
2017-04-20T00:40:48.047Z,82.90
2017-04-20T00:41:47.967Z,83.60
2017-04-20T00:42:47.124Z,82.70
2017-04-20T00:43:46.188Z,83.10
2017-04-20T00:44:45.340Z,83.60
2017-04-20T00:45:44.540Z,83.70
2017-04-20T00:46:43.990Z,83.50
2017-04-20T00:47:43.137Z,83.10
2017-04-20T00:48:42.285Z,83.50
2017-04-20T00:49:41.468Z,83.10
2017-04-20T00:50:40.628Z,83.00
2017-04-20T00:51:39.746Z,82.90
2017-04-20T00:52:38.927Z,83.40
2017-04-20T00:53:38.090Z,83.80
2017-04-20T00:54:37.225Z,83.80
2017-04-20T00:55:36.454Z,83.70
2017-04-20T00:56:35.600Z,83.60
2017-04-20T00:57:34.761Z,83.50
2017-04-20T00:58:33.136Z,84.10
2017-04-20T00:59:32.304Z,83.10
2017-04-20T01:00:31.474Z,82.10
2017-04-20T01:01:30.641Z,82.20
2017-04-20T01:02:29.789Z,82.10
2017-04-20T01:03:28.944Z,82.70
2017-04-20T01:04:28.115Z,82.90
2017-04-20T01:05:27.231Z,82.80
2017-04-20T01:06:27.148Z,83.20
2017-04-20T01:07:26.323Z,83.30
2017-04-20T01:08:25.497Z,83.30
2017-04-20T01:09:24.697Z,83.20
2017-04-20T01:10:23.844Z,83.30
2017-04-20T01:11:22.990Z,83.00
2017-04-20T01:12:22.161Z,82.70
2017-04-20T01:13:22.123Z,82.50
2017-04-20T01:14:21.280Z,83.00
2017-04-20T01:15:20.395Z,83.50
2017-04-20T01:16:19.520Z,83.60
2017-04-20T01:17:19.461Z,83.30
2017-04-20T01:18:19.037Z,82.90
2017-04-20T01:19:18.336Z,83.30
2017-04-20T01:20:17.496Z,83.40
2017-04-20T01:21:16.663Z,83.40
2017-04-20T01:22:15.863Z,83.20
2017-04-20T01:23:15.005Z,82.80
2017-04-20T01:24:14.214Z,82.50
2017-04-20T01:25:13.352Z,82.30
2017-04-20T01:26:12.484Z,82.70
2017-04-20T01:27:11.654Z,82.90
2017-04-20T01:28:11.236Z,83.20
2017-04-20T01:29:10.452Z,83.20
2017-04-20T01:30:09.603Z,82.70
2017-04-20T01:31:08.793Z,82.70
2017-04-20T01:32:07.961Z,83.20
2017-04-20T01:33:07.391Z,83.30
2017-04-20T01:34:06.497Z,83.60
2017-04-20T01:35:05.675Z,83.50
2017-04-20T01:36:04.827Z,83.70
2017-04-20T01:37:03.995Z,83.60
2017-04-20T01:38:03.903Z,83.80
2017-04-20T01:39:04.168Z,82.60
2017-04-20T01:40:03.335Z,82.90
2017-04-20T01:41:02.564Z,83.40
2017-04-20T01:42:01.704Z,83.50
2017-04-20T01:43:00.871Z,83.50
2017-04-20T01:44:00.024Z,83.30
2017-04-20T01:44:59.337Z,83.80
2017-04-20T01:45:58.540Z,83.60
2017-04-20T01:46:58.585Z,83.80
2017-04-20T01:47:57.773Z,84.00
2017-04-20T01:48:56.917Z,84.10
2017-04-20T01:49:56.049Z,83.70
2017-04-20T01:50:55.199Z,83.70
2017-04-20T01:51:55.139Z,83.70
2017-04-20T01:52:54.400Z,83.70
2017-04-20T01:53:53.567Z,83.40
2017-04-20T01:54:53.523Z,83.30
2017-04-20T01:55:52.672Z,83.40
2017-04-20T01:56:51.845Z,83.30
2017-04-20T01:57:51.053Z,83.70
2017-04-20T01:58:50.223Z,83.60
2017-04-20T01:59:50.108Z,83.90
2017-04-20T02:00:49.264Z,83.90
2017-04-20T02:01:48.436Z,83.80
2017-04-20T02:02:47.600Z,83.60
2017-04-20T02:03:47.487Z,83.40
2017-04-20T02:04:46.636Z,83.40
2017-04-20T02:05:45.818Z,83.30
2017-04-20T02:06:45.104Z,83.40
2017-04-20T02:07:44.287Z,83.30
2017-04-20T02:08:43.449Z,83.50
2017-04-20T02:09:42.593Z,83.70
2017-04-20T02:10:41.829Z,82.90
2017-04-20T02:11:41.030Z,83.10
2017-04-20T02:12:40.332Z,83.30
2017-04-20T02:13:39.518Z,83.70
2017-04-20T02:14:38.660Z,83.50
2017-04-20T02:15:37.836Z,84.40
2017-04-20T02:16:37.013Z,83.80
2017-04-20T02:17:36.127Z,83.50
2017-04-20T02:18:36.049Z,83.20
2017-04-20T02:19:35.190Z,83.40
2017-04-20T02:20:34.416Z,83.00
2017-04-20T02:21:34.354Z,84.00
2017-04-20T02:22:33.802Z,83.30
2017-04-20T02:23:33.745Z,83.40
2017-04-20T02:24:32.944Z,83.80
2017-04-20T02:25:32.071Z,83.60
2017-04-20T02:26:31.158Z,83.40
2017-04-20T02:27:30.312Z,83.40
2017-04-20T02:28:29.464Z,83.60
2017-04-20T02:29:29.056Z,83.70
2017-04-20T02:30:28.223Z,83.80
2017-04-20T02:31:28.137Z,84.30
2017-04-20T02:32:27.276Z,83.60
2017-04-20T02:33:26.420Z,83.80
2017-04-20T02:34:25.561Z,84.40
2017-04-20T02:35:25.101Z,83.50
2017-04-20T02:36:24.275Z,84.00
2017-04-20T02:37:24.324Z,83.80
2017-04-20T02:38:23.501Z,83.60
2017-04-20T02:39:22.657Z,84.10
2017-04-20T02:40:22.556Z,83.70
2017-04-20T02:41:21.732Z,83.90
2017-04-20T02:42:21.765Z,83.80
2017-04-20T02:43:20.887Z,84.00
2017-04-20T02:44:20.062Z,84.00
2017-04-20T02:45:19.352Z,83.70
2017-04-20T02:46:18.468Z,83.60
2017-04-20T02:47:17.619Z,83.80
2017-04-20T02:48:16.762Z,83.80
2017-04-20T02:49:15.927Z,84.00
2017-04-20T02:50:15.105Z,84.40
2017-04-20T02:51:14.257Z,84.20
2017-04-20T02:52:13.392Z,84.40
2017-04-20T02:53:12.605Z,84.30
2017-04-20T02:54:11.783Z,83.60
2017-04-20T02:55:10.945Z,83.80
2017-04-20T02:56:10.470Z,83.70
2017-04-20T02:57:09.632Z,83.80
2017-04-20T02:58:08.793Z,84.30
2017-04-20T02:59:07.958Z,84.10
2017-04-20T03:00:07.875Z,84.00
2017-04-20T03:01:07.027Z,84.10
2017-04-20T03:02:06.239Z,84.40
2017-04-20T03:03:06.172Z,84.50
2017-04-20T03:04:05.372Z,84.50
2017-04-20T03:05:04.540Z,84.40
2017-04-20T03:06:03.692Z,84.50
2017-04-20T03:07:02.857Z,84.70
2017-04-20T03:08:02.000Z,84.70
2017-04-20T03:09:01.164Z,84.90
2017-04-20T03:10:01.068Z,84.70
2017-04-20T03:11:00.401Z,84.70
2017-04-20T03:11:59.585Z,84.60
2017-04-20T03:12:58.825Z,84.50
2017-04-20T03:13:57.949Z,84.90
2017-04-20T03:14:57.097Z,85.00
2017-04-20T03:15:56.257Z,85.10
2017-04-20T03:16:55.424Z,85.10
2017-04-20T03:17:54.580Z,85.20
2017-04-20T03:18:53.809Z,84.90
2017-04-20T03:19:53.085Z,84.60
2017-04-20T03:20:52.263Z,84.40
2017-04-20T03:21:51.424Z,84.30
2017-04-20T03:22:51.323Z,84.20
2017-04-20T03:23:50.465Z,84.30
2017-04-20T03:24:49.635Z,84.00
2017-04-20T03:25:48.806Z,84.00
2017-04-20T03:26:48.024Z,84.30
2017-04-20T03:27:47.204Z,84.40
2017-04-20T03:28:46.796Z,84.60
2017-04-20T03:29:45.924Z,84.40
2017-04-20T03:30:45.124Z,84.40
2017-04-20T03:31:44.331Z,84.30
2017-04-20T03:32:43.556Z,84.50
2017-04-20T03:33:42.695Z,84.60
2017-04-20T03:34:42.673Z,84.60
2017-04-20T03:35:41.827Z,84.90
2017-04-20T03:36:41.012Z,84.80
2017-04-20T03:37:40.145Z,84.70
2017-04-20T03:38:40.627Z,84.30
2017-04-20T03:39:39.781Z,84.40
2017-04-20T03:40:38.888Z,84.60
2017-04-20T03:41:38.054Z,84.50
2017-04-20T03:42:37.195Z,84.60
2017-04-20T03:43:36.324Z,84.40
2017-04-20T03:44:35.919Z,84.40
2017-04-20T03:45:35.825Z,84.10
2017-04-20T03:46:35.780Z,84.10
2017-04-20T03:47:34.960Z,84.10
2017-04-20T03:48:34.126Z,84.40
2017-04-20T03:49:33.288Z,84.20
2017-04-20T03:50:32.593Z,84.20
2017-04-20T03:51:31.741Z,84.90
2017-04-20T03:52:30.924Z,84.50
2017-04-20T03:53:30.089Z,84.70
2017-04-20T03:54:30.073Z,84.60
2017-04-20T03:55:29.237Z,84.90
2017-04-20T03:56:29.160Z,84.90
2017-04-20T03:57:28.336Z,84.60
2017-04-20T03:58:28.236Z,84.70
2017-04-20T03:59:27.429Z,85.00
2017-04-20T04:00:26.594Z,85.20
2017-04-20T04:01:25.745Z,84.60
2017-04-20T04:02:24.941Z,84.90
2017-04-20T04:03:24.838Z,85.40
2017-04-20T04:04:24.016Z,85.60
2017-04-20T04:05:23.195Z,84.90
2017-04-20T04:06:22.336Z,84.90
2017-04-20T04:07:21.522Z,84.90
2017-04-20T04:08:20.671Z,84.80
2017-04-20T04:09:19.829Z,84.70
2017-04-20T04:10:19.002Z,84.60
2017-04-20T04:11:18.233Z,84.70
2017-04-20T04:12:17.388Z,84.90
2017-04-20T04:13:16.700Z,85.00
2017-04-20T04:14:15.884Z,85.00
2017-04-20T04:15:15.045Z,84.90
2017-04-20T04:16:14.997Z,84.70
2017-04-20T04:17:17.040Z,84.50
2017-04-20T04:18:16.202Z,84.60
2017-04-20T04:19:15.727Z,84.70
2017-04-20T04:20:14.907Z,85.30
2017-04-20T04:21:14.078Z,84.70
2017-04-20T04:22:13.272Z,84.90
2017-04-20T04:23:12.586Z,85.10
2017-04-20T04:24:12.486Z,85.10
2017-04-20T04:25:11.685Z,85.70
2017-04-20T04:26:10.864Z,84.50
2017-04-20T04:27:10.834Z,84.80
2017-04-20T04:28:10.024Z,84.90
2017-04-20T04:29:09.209Z,84.90
2017-04-20T04:30:08.371Z,84.70
2017-04-20T04:31:07.561Z,85.00
2017-04-20T04:32:06.712Z,85.00
2017-04-20T04:33:06.657Z,84.70
2017-04-20T04:34:11.387Z,84.50
2017-04-20T04:35:11.298Z,84.60
2017-04-20T04:36:10.508Z,84.60
2017-04-20T04:37:09.696Z,84.60
2017-04-20T04:38:08.916Z,84.60
2017-04-20T04:39:08.053Z,84.90
2017-04-20T04:40:07.258Z,84.80
2017-04-20T04:41:06.436Z,85.00
2017-04-20T04:42:05.619Z,84.60
2017-04-20T04:43:04.952Z,84.40
2017-04-20T04:44:04.182Z,84.40
2017-04-20T04:45:04.089Z,84.40
2017-04-20T04:46:04.003Z,84.60
2017-04-20T04:47:03.161Z,84.50
2017-04-20T04:48:02.569Z,84.60
2017-04-20T04:49:01.707Z,84.50
2017-04-20T04:50:00.992Z,84.70
2017-04-20T04:51:00.181Z,85.00
2017-04-20T04:51:59.316Z,84.80
2017-04-20T04:52:59.216Z,84.40
2017-04-20T04:53:58.905Z,84.60
2017-04-20T04:54:58.208Z,84.40
2017-04-20T04:55:57.357Z,84.70
2017-04-20T04:56:56.471Z,84.90
2017-04-20T04:57:55.643Z,84.70
2017-04-20T04:58:55.572Z,84.50
2017-04-20T04:59:55.504Z,84.40
2017-04-20T05:00:54.764Z,84.50
2017-04-20T05:01:53.944Z,84.50
2017-04-20T05:02:53.097Z,84.70
2017-04-20T05:03:52.250Z,84.70
2017-04-20T05:04:51.436Z,84.80
2017-04-20T05:05:50.604Z,85.10
2017-04-20T05:06:49.756Z,85.20
2017-04-20T05:07:48.908Z,85.20
2017-04-20T05:08:48.115Z,85.20
2017-04-20T05:09:47.264Z,85.20
2017-04-20T05:10:47.189Z,85.20
2017-04-20T05:11:46.353Z,84.70
2017-04-20T05:12:45.513Z,84.70
2017-04-20T05:13:44.717Z,84.80
2017-04-20T05:14:43.879Z,84.80
2017-04-20T05:15:43.051Z,85.00
2017-04-20T05:16:42.256Z,84.60
2017-04-20T05:17:41.363Z,84.70
2017-04-20T05:18:40.494Z,84.60
2017-04-20T05:19:39.644Z,84.70
2017-04-20T05:20:39.557Z,84.70
2017-04-20T05:21:38.809Z,84.80
2017-04-20T05:22:37.961Z,84.90
2017-04-20T05:23:37.146Z,84.80
2017-04-20T05:24:36.305Z,84.60
2017-04-20T05:25:35.453Z,84.50
2017-04-20T05:26:34.635Z,84.30
2017-04-20T05:27:33.899Z,84.40
2017-04-20T05:28:33.061Z,84.40
2017-04-20T05:29:33.062Z,84.10
2017-04-20T05:30:32.938Z,84.20
2017-04-20T05:31:32.145Z,86.10
2017-04-20T05:32:31.373Z,84.40
2017-04-20T05:33:30.507Z,85.20
2017-04-20T05:34:29.624Z,84.60
2017-04-20T05:35:28.784Z,85.00
2017-04-20T05:36:27.956Z,85.10
2017-04-20T05:37:27.977Z,85.00
2017-04-20T05:38:27.156Z,85.10
2017-04-20T05:39:26.279Z,87.20
2017-04-20T05:40:25.456Z,84.90
2017-04-20T05:41:25.346Z,85.00
2017-04-20T05:42:24.504Z,85.00
2017-04-20T05:43:24.461Z,84.90
2017-04-20T05:44:23.629Z,84.90
2017-04-20T05:45:22.839Z,85.40
2017-04-20T05:46:21.965Z,84.70
2017-04-20T05:47:21.890Z,84.50
2017-04-20T05:48:21.796Z,84.70
2017-04-20T05:49:21.334Z,84.50
2017-04-20T05:50:21.259Z,84.40
2017-04-20T05:51:20.417Z,84.60
2017-04-20T05:52:19.760Z,84.10
2017-04-20T05:53:18.933Z,83.00
2017-04-20T05:54:18.145Z,83.30
2017-04-20T05:55:17.329Z,82.70
2017-04-20T05:56:16.560Z,83.00
2017-04-20T05:57:15.726Z,82.10
2017-04-20T05:58:14.928Z,82.30
2017-04-20T05:59:14.382Z,81.80
2017-04-20T06:00:15.391Z,81.00
2017-04-20T06:01:14.692Z,81.80
2017-04-20T06:02:14.081Z,82.50
2017-04-20T06:03:13.597Z,82.00
2017-04-20T06:04:13.003Z,81.90
2017-04-20T06:05:12.340Z,82.30
2017-04-20T06:06:11.865Z,81.60
2017-04-20T06:07:11.321Z,81.50
2017-04-20T06:08:10.693Z,81.90
2017-04-20T06:09:10.103Z,80.80
2017-04-20T06:10:09.452Z,80.60
2017-04-20T06:11:08.831Z,79.90
2017-04-20T06:12:08.185Z,79.60
2017-04-20T06:13:07.641Z,79.90
2017-04-20T06:14:07.018Z,80.90
2017-04-20T06:15:06.325Z,80.10
2017-04-20T06:16:05.568Z,79.80
2017-04-20T06:17:05.081Z,80.80
2017-04-20T06:18:04.503Z,80.00
2017-04-20T06:19:03.994Z,79.70
2017-04-20T06:20:03.657Z,80.50
2017-04-20T06:21:03.193Z,80.00
2017-04-20T06:22:02.580Z,79.50
2017-04-20T06:23:01.789Z,79.40
2017-04-20T06:24:02.063Z,79.10
2017-04-20T06:25:01.390Z,79.10
2017-04-20T06:26:01.081Z,79.80
2017-04-20T06:27:00.460Z,79.30
2017-04-20T06:28:00.645Z,78.60
2017-04-20T06:28:59.906Z,78.50
2017-04-20T06:29:59.209Z,77.50
2017-04-20T06:30:58.562Z,77.60
2017-04-20T06:31:58.309Z,77.00
2017-04-20T06:32:57.544Z,77.40
2017-04-20T06:33:57.128Z,77.40
2017-04-20T06:34:56.394Z,76.10
2017-04-20T06:35:55.903Z,75.60
2017-04-20T06:36:55.176Z,75.90
2017-04-20T06:37:54.485Z,76.30
2017-04-20T06:38:54.163Z,76.10
2017-04-20T06:39:53.563Z,75.50
2017-04-20T06:40:53.083Z,75.30
2017-04-20T06:41:52.387Z,74.90
2017-04-20T06:42:51.994Z,75.20
2017-04-20T06:43:51.306Z,76.20
2017-04-20T06:44:50.873Z,75.20
2017-04-20T06:45:50.126Z,74.30
2017-04-20T06:46:50.167Z,74.50
2017-04-20T06:47:49.384Z,75.00
2017-04-20T06:48:49.964Z,74.40
2017-04-20T06:49:49.506Z,74.60
2017-04-20T06:50:48.989Z,74.50
2017-04-20T06:51:48.188Z,73.70
2017-04-20T06:52:47.526Z,73.30
2017-04-20T06:53:46.732Z,74.40
2017-04-20T06:54:46.002Z,74.30
2017-04-20T06:55:45.269Z,72.70
2017-04-20T06:56:44.562Z,71.00
2017-04-20T06:57:43.780Z,70.90
2017-04-20T06:58:42.961Z,71.10
2017-04-20T06:59:42.213Z,69.30
2017-04-20T07:00:42.257Z,68.70
2017-04-20T07:01:41.545Z,69.00
2017-04-20T07:02:49.655Z,68.90
2017-04-20T07:03:48.928Z,70.10
2017-04-20T07:04:48.345Z,68.40
2017-04-20T07:05:47.539Z,68.00
2017-04-20T07:06:47.433Z,67.90
2017-04-20T07:07:46.604Z,68.60
2017-04-20T07:08:45.812Z,67.40
2017-04-20T07:09:45.230Z,68.40
2017-04-20T07:10:44.477Z,67.90
2017-04-20T07:11:43.748Z,67.20
2017-04-20T07:12:42.895Z,66.70
2017-04-20T07:13:42.039Z,66.60
2017-04-20T07:14:41.205Z,66.30
2017-04-20T07:15:40.362Z,67.00
2017-04-20T07:16:39.520Z,66.00
2017-04-20T07:17:39.417Z,66.10
2017-04-20T07:18:38.581Z,66.10
2017-04-20T07:19:37.724Z,65.50
2017-04-20T07:20:36.882Z,65.50
2017-04-20T07:21:37.104Z,64.90
2017-04-20T07:22:36.988Z,65.00
2017-04-20T07:23:36.103Z,64.40
2017-04-20T07:24:35.267Z,63.90
2017-04-20T07:25:34.785Z,65.10
2017-04-20T07:26:33.933Z,64.30
2017-04-20T07:27:33.114Z,62.90
2017-04-20T07:28:32.259Z,63.00
2017-04-20T07:29:31.419Z,62.80
2017-04-20T07:30:30.568Z,62.70
2017-04-20T07:31:29.713Z,63.50
2017-04-20T07:32:28.857Z,64.10
2017-04-20T07:33:28.016Z,65.20
2017-04-20T07:34:27.901Z,64.70
2017-04-20T07:35:27.007Z,63.10
2017-04-20T07:36:26.657Z,62.20
2017-04-20T07:37:26.585Z,62.90
2017-04-20T07:38:25.757Z,63.00
2017-04-20T07:39:24.925Z,63.60
2017-04-20T07:40:24.068Z,62.00
2017-04-20T07:41:24.019Z,61.10
2017-04-20T07:42:23.959Z,61.00
2017-04-20T07:43:23.088Z,61.30
2017-04-20T07:44:22.248Z,61.50
2017-04-20T07:45:21.361Z,60.30
2017-04-20T07:46:20.516Z,59.00
2017-04-20T07:47:19.676Z,57.90
2017-04-20T07:48:18.889Z,57.70
2017-04-20T07:49:18.024Z,59.10
2017-04-20T07:50:17.949Z,57.80
2017-04-20T07:51:17.116Z,57.90
2017-04-20T07:52:16.299Z,57.40
2017-04-20T07:53:15.892Z,56.40
2017-04-20T07:54:15.053Z,56.10
2017-04-20T07:55:14.308Z,56.90
2017-04-20T07:56:13.461Z,56.50
2017-04-20T07:57:12.632Z,57.00
2017-04-20T07:58:11.844Z,57.40
2017-04-20T07:59:11.781Z,56.40
2017-04-20T08:00:10.923Z,56.10
2017-04-20T08:01:10.068Z,56.10
2017-04-20T08:02:09.240Z,56.60
2017-04-20T08:03:09.028Z,55.90
2017-04-20T08:04:08.280Z,55.80
2017-04-20T08:05:07.704Z,56.20
2017-04-20T08:06:06.886Z,56.00
2017-04-20T08:07:06.064Z,56.20
2017-04-20T08:08:05.985Z,56.40
2017-04-20T08:09:05.396Z,56.50
2017-04-20T08:10:04.525Z,55.40
2017-04-20T08:11:03.701Z,54.00
2017-04-20T08:12:02.820Z,52.70
2017-04-20T08:13:02.738Z,53.40
2017-04-20T08:14:01.931Z,53.10
2017-04-20T08:15:01.148Z,50.90
2017-04-20T08:16:00.308Z,53.00
2017-04-20T08:16:59.476Z,52.30
2017-04-20T08:17:59.396Z,50.60
2017-04-20T08:18:58.525Z,50.40
2017-04-20T08:19:57.697Z,50.10
2017-04-20T08:20:56.888Z,51.00
2017-04-20T08:21:55.985Z,50.80
2017-04-20T08:22:55.125Z,50.90
2017-04-20T08:23:54.273Z,50.00
2017-04-20T08:24:53.460Z,50.40
2017-04-20T08:25:52.626Z,51.30
2017-04-20T08:26:51.769Z,49.30
2017-04-20T08:27:50.919Z,48.80
2017-04-20T08:28:49.997Z,50.30
2017-04-20T08:29:49.169Z,48.70
2017-04-20T08:30:48.333Z,49.00
2017-04-20T08:31:47.484Z,48.80
2017-04-20T08:32:46.670Z,48.60
2017-04-20T08:33:47.112Z,49.90
2017-04-20T08:34:46.283Z,49.40
2017-04-20T08:35:46.124Z,49.80
2017-04-20T08:36:45.309Z,46.10
2017-04-20T08:37:44.532Z,45.20
2017-04-20T08:38:43.653Z,46.50
2017-04-20T08:39:42.964Z,45.80
2017-04-20T08:40:42.113Z,46.90
2017-04-20T08:41:42.000Z,47.80
2017-04-20T08:42:41.129Z,44.50
2017-04-20T08:43:40.308Z,45.50
2017-04-20T08:44:39.425Z,45.00
2017-04-20T08:45:38.579Z,46.50
2017-04-20T08:46:37.726Z,43.90
2017-04-20T08:47:37.089Z,43.80
2017-04-20T08:48:36.220Z,44.80
2017-04-20T08:49:35.378Z,45.30
2017-04-20T08:50:35.463Z,46.20
2017-04-20T08:51:34.577Z,45.90
2017-04-20T08:52:33.771Z,45.20
2017-04-20T08:53:33.215Z,45.50
2017-04-20T08:54:32.340Z,46.00
2017-04-20T08:55:31.723Z,45.50
2017-04-20T08:56:31.665Z,47.00
2017-04-20T08:57:30.826Z,45.70
2017-04-20T08:58:30.050Z,45.40
2017-04-20T08:59:29.238Z,45.40
2017-04-20T09:00:28.465Z,46.10
2017-04-20T09:01:27.640Z,45.60
2017-04-20T09:02:26.786Z,45.50
2017-04-20T09:03:25.921Z,45.70
2017-04-20T09:04:25.120Z,47.50
2017-04-20T09:05:24.276Z,45.50
2017-04-20T09:06:23.439Z,45.50
2017-04-20T09:07:22.584Z,44.60
2017-04-20T09:08:21.709Z,44.00
2017-04-20T09:09:20.997Z,46.00
2017-04-20T09:10:20.162Z,45.00
2017-04-20T09:11:19.326Z,44.80
2017-04-20T09:12:18.543Z,42.90
2017-04-20T09:13:17.697Z,43.80
2017-04-20T09:14:16.911Z,44.40
2017-04-20T09:15:16.381Z,44.70
2017-04-20T09:16:15.565Z,44.40
2017-04-20T09:17:14.764Z,45.30
2017-04-20T09:18:14.068Z,44.10
2017-04-20T09:19:13.526Z,43.70
2017-04-20T09:20:12.633Z,42.90
2017-04-20T09:21:12.569Z,43.40
2017-04-20T09:22:11.701Z,43.30
2017-04-20T09:23:10.885Z,43.60
2017-04-20T09:24:10.100Z,44.90
2017-04-20T09:25:09.232Z,46.10
2017-04-20T09:26:09.137Z,42.50
2017-04-20T09:27:09.081Z,42.20
2017-04-20T09:28:08.253Z,43.90
2017-04-20T09:29:07.411Z,43.60
2017-04-20T09:30:07.329Z,43.80
2017-04-20T09:31:06.535Z,44.30
2017-04-20T09:32:05.841Z,43.60
2017-04-20T09:33:07.688Z,43.30
2017-04-20T09:34:09.515Z,44.80
2017-04-20T09:35:09.086Z,43.20
2017-04-20T09:36:08.797Z,43.70
2017-04-20T09:37:08.445Z,43.20
2017-04-20T09:38:07.951Z,42.90
2017-04-20T09:39:07.170Z,42.90
2017-04-20T09:40:06.465Z,44.70
2017-04-20T09:41:05.709Z,41.20
2017-04-20T09:42:05.283Z,42.20
2017-04-20T09:43:04.626Z,43.60
2017-04-20T09:44:03.929Z,42.20
2017-04-20T09:45:03.825Z,42.50
2017-04-20T09:46:03.715Z,42.40
2017-04-20T09:47:02.962Z,43.10
2017-04-20T09:48:02.088Z,43.00
2017-04-20T09:49:01.308Z,43.20
2017-04-20T09:50:00.493Z,43.80
2017-04-20T09:50:59.636Z,42.30
2017-04-20T09:51:58.792Z,41.80
2017-04-20T09:52:57.920Z,42.10
2017-04-20T09:53:57.031Z,41.70
2017-04-20T09:54:56.233Z,44.70
2017-04-20T09:55:55.492Z,43.80
2017-04-20T09:56:54.648Z,43.70
2017-04-20T09:57:53.817Z,42.90
2017-04-20T09:58:53.047Z,41.60
2017-04-20T09:59:52.204Z,41.70
2017-04-20T10:00:51.341Z,41.40
2017-04-20T10:01:51.245Z,41.90
2017-04-20T10:02:50.415Z,43.00
2017-04-20T10:03:50.035Z,43.50
2017-04-20T10:04:49.171Z,44.80
2017-04-20T10:05:48.323Z,43.70
2017-04-20T10:06:47.511Z,43.90
2017-04-20T10:08:50.468Z,44.30
2017-04-20T10:09:50.414Z,43.40
2017-04-20T10:10:49.574Z,41.50
2017-04-20T10:11:48.730Z,42.00
2017-04-20T10:12:47.840Z,42.70
2017-04-20T10:13:47.202Z,43.30
2017-04-20T10:14:46.336Z,42.00
2017-04-20T10:15:45.521Z,42.40
2017-04-20T10:16:44.669Z,42.40
2017-04-20T10:17:43.799Z,42.80
2017-04-20T10:18:42.912Z,42.60
2017-04-20T10:19:42.048Z,41.70
2017-04-20T10:20:41.192Z,42.50
2017-04-20T10:21:40.386Z,42.40
2017-04-20T10:22:39.549Z,42.40
2017-04-20T10:23:38.702Z,42.40
2017-04-20T10:24:37.904Z,44.30
2017-04-20T10:25:37.112Z,39.70
2017-04-20T10:26:36.234Z,40.80
2017-04-20T10:27:35.409Z,40.90
2017-04-20T10:28:34.581Z,41.20
2017-04-20T10:29:34.460Z,39.70
2017-04-20T10:30:33.604Z,39.10
2017-04-20T10:31:32.772Z,40.20
2017-04-20T10:32:31.952Z,41.00
2017-04-20T10:33:31.236Z,39.70
2017-04-20T10:34:30.387Z,38.70
2017-04-20T10:35:30.332Z,38.90
2017-04-20T10:36:29.534Z,37.90
2017-04-20T10:37:28.701Z,37.00
2017-04-20T10:38:27.889Z,39.80
2017-04-20T10:39:27.040Z,39.90
2017-04-20T10:40:26.736Z,38.40
2017-04-20T10:41:25.885Z,39.40
2017-04-20T10:42:25.776Z,37.80
2017-04-20T10:43:24.919Z,37.70
2017-04-20T10:44:24.133Z,36.80
2017-04-20T10:45:23.252Z,37.10
2017-04-20T10:46:22.448Z,37.30
2017-04-20T10:47:21.569Z,37.90
2017-04-20T10:48:20.740Z,37.20
2017-04-20T10:49:19.867Z,37.00
2017-04-20T10:50:19.007Z,37.90
2017-04-20T10:51:18.160Z,38.10
2017-04-20T10:52:17.377Z,38.50
2017-04-20T10:53:16.539Z,37.90
2017-04-20T10:54:15.658Z,38.90
2017-04-20T10:55:14.941Z,36.80
2017-04-20T10:56:14.107Z,36.20
2017-04-20T10:57:13.377Z,36.10
2017-04-20T10:58:12.509Z,36.70
2017-04-20T10:59:11.653Z,37.40
2017-04-20T11:00:10.848Z,37.20
2017-04-20T11:01:10.064Z,36.70
2017-04-20T11:02:09.264Z,35.00
2017-04-20T11:03:08.439Z,36.40
2017-04-20T11:04:07.664Z,35.90
2017-04-20T11:05:06.827Z,37.00
2017-04-20T11:06:05.998Z,37.80
2017-04-20T11:07:05.178Z,37.60
2017-04-20T11:08:04.400Z,36.50
2017-04-20T11:09:03.585Z,36.20
2017-04-20T11:10:02.745Z,36.80
2017-04-20T11:11:01.889Z,34.80
2017-04-20T11:12:00.984Z,35.40
2017-04-20T11:13:00.173Z,35.70
2017-04-20T11:13:59.356Z,35.10
2017-04-20T11:14:58.615Z,35.20
2017-04-20T11:15:58.640Z,35.10
2017-04-20T11:16:57.822Z,36.00
2017-04-20T11:17:57.745Z,35.70
2017-04-20T11:18:56.936Z,35.40
2017-04-20T11:19:56.227Z,35.10
2017-04-20T11:20:55.375Z,35.50
2017-04-20T11:21:54.600Z,35.20
2017-04-20T11:22:53.768Z,34.00
2017-04-20T11:23:53.722Z,32.90
2017-04-20T11:24:53.120Z,33.00
2017-04-20T11:25:52.285Z,33.70
2017-04-20T11:26:52.157Z,34.70
2017-04-20T11:27:51.324Z,35.00
2017-04-20T11:28:50.508Z,34.20
2017-04-20T11:29:49.720Z,35.20
2017-04-20T11:30:48.903Z,32.60
2017-04-20T11:31:48.104Z,33.20
2017-04-20T11:32:47.270Z,33.00
2017-04-20T11:33:46.517Z,32.40
2017-04-20T11:34:45.749Z,34.40
2017-04-20T11:35:44.997Z,36.00
2017-04-20T11:36:44.163Z,33.20
2017-04-20T11:37:45.375Z,32.40
2017-04-20T11:38:44.552Z,34.20
2017-04-20T11:39:43.707Z,32.70
2017-04-20T11:40:42.966Z,32.40
2017-04-20T11:41:42.155Z,34.40
2017-04-20T11:42:41.313Z,35.50
2017-04-20T11:43:40.581Z,34.00
2017-04-20T11:44:39.748Z,32.70
2017-04-20T11:45:38.885Z,32.50
2017-04-20T11:46:38.834Z,32.90
2017-04-20T11:47:38.027Z,32.50
2017-04-20T11:48:37.243Z,32.60
2017-04-20T11:49:37.182Z,33.70
2017-04-20T11:50:37.129Z,33.00
2017-04-20T11:51:36.569Z,32.40
2017-04-20T11:52:36.913Z,33.50
2017-04-20T11:53:36.087Z,32.00
2017-04-20T11:54:35.289Z,32.90
2017-04-20T11:55:34.526Z,31.60
2017-04-20T11:56:33.828Z,31.30
2017-04-20T11:57:33.383Z,30.60
2017-04-20T11:58:32.584Z,33.00
2017-04-20T11:59:31.769Z,32.50
2017-04-20T12:00:30.964Z,31.10
2017-04-20T12:01:30.140Z,32.40
2017-04-20T12:02:29.307Z,31.60
2017-04-20T12:03:28.547Z,30.50
2017-04-20T12:04:27.726Z,31.00
2017-04-20T12:05:26.885Z,32.00
2017-04-20T12:06:26.045Z,33.10
2017-04-20T12:07:25.191Z,33.30
2017-04-20T12:08:24.372Z,30.30
2017-04-20T12:09:23.691Z,31.00
2017-04-20T12:10:22.885Z,30.50
2017-04-20T12:11:22.037Z,32.70
2017-04-20T12:12:21.164Z,31.90
2017-04-20T12:13:20.409Z,32.50
2017-04-20T12:14:19.604Z,32.80
2017-04-20T12:15:18.765Z,33.40
2017-04-20T12:16:17.919Z,34.20
2017-04-20T12:17:17.299Z,33.10
2017-04-20T12:18:16.646Z,32.30
2017-04-20T12:19:15.888Z,31.20
2017-04-20T12:20:15.129Z,31.70
2017-04-20T12:21:14.388Z,30.60
2017-04-20T12:22:13.561Z,30.80
2017-04-20T12:23:12.728Z,29.50
2017-04-20T12:24:11.869Z,30.00
2017-04-20T12:25:11.356Z,31.60
2017-04-20T12:26:10.559Z,31.60
2017-04-20T12:27:09.720Z,30.60
2017-04-20T12:28:08.877Z,30.00
2017-04-20T12:29:08.051Z,27.70
2017-04-20T12:30:07.963Z,27.80
2017-04-20T12:31:07.456Z,27.30
2017-04-20T12:32:06.643Z,27.90
2017-04-20T12:33:05.823Z,28.30
2017-04-20T12:34:05.014Z,28.20
2017-04-20T12:35:04.229Z,28.40
2017-04-20T12:36:03.433Z,28.20
2017-04-20T12:37:02.619Z,28.70
2017-04-20T12:38:01.789Z,28.40
2017-04-20T12:39:01.696Z,27.80
2017-04-20T12:40:00.901Z,29.10
2017-04-20T12:41:00.189Z,28.70
2017-04-20T12:41:59.310Z,27.80
2017-04-20T12:42:58.482Z,27.40
2017-04-20T12:43:57.804Z,27.20
2017-04-20T12:44:56.952Z,28.10
2017-04-20T12:45:56.525Z,27.60